To NAV CANADA Home Page Login to a new session Search on AWWS site Feedback and Comments Disclaimer Vers la page française équivalente Tips FAQ What's new on the site To the Forecasts and Observations / NOTAM section To "File a Flight Plan" website Publications and other links Update of the User's profile FIC Telephone Numbers My Weather Data Folder Route Weather Data Regional Weather Data Local Weather Data To the Forecasts and Observations / NOTAM section
Request Generated 10/28/2016 at 13:59:53 UTC . Weather information available at that time is displayed.



METAR CWCA 281300Z 20006KT 15SM SCT015 M06/M08 A3043 RMK SC4 SLP308=
METAR CWCA 281200Z 23005KT 15SM FEW012 M06/M08 A3044 RMK CU1 SLP309=
METAR CWCA 281100Z 21007KT 15SM BKN010 M07/M09 A3044 RMK ST7 SLP312=

TAF CYCA 281338Z 2814/2902 ADVISORY OFFSITE 20008KT P6SM SCT020
BECMG 2823/2901 22012KT
Your time UTC time
Weather data provided by Environment Canada and NAV CANADA